Time;durP1;ratioP1;P1;durP2;ratioP2;P2;SDS_P1;SDS_P2;PMS_P1;PMS_P2;Temp;Humidity;BMP_temperature;BMP_pressure;BME280_temperature;BME280_humidity;BME280_pressure;Samples;Min_cycle;Max_cycle;Signal;HPM_P1;HPM_P2
2022/08/22 00:01:19;;;;;;;1009.67;921.28;;;22.50;99.90;;;;;;5036476;28;20192;-81
2022/08/22 00:03:58;;;;;;;1012.30;923.78;;;22.50;99.90;;;;;;5041728;28;20227;-81
2022/08/22 00:06:33;;;;;;;1010.83;922.47;;;22.50;99.90;;;;;;5046315;28;20711;-80
2022/08/22 00:09:12;;;;;;;998.80;910.83;;;22.40;99.90;;;;;;5053862;28;20689;-81
2022/08/22 00:11:45;;;;;;;1005.72;917.75;;;22.50;99.90;;;;;;5051207;28;20635;-80
2022/08/22 00:14:24;;;;;;;1014.35;925.72;;;22.40;99.90;;;;;;5040861;28;20196;-80
2022/08/22 00:17:00;;;;;;;1003.30;915.20;;;22.40;99.90;;;;;;5038626;28;20211;-80
2022/08/22 00:19:37;;;;;;;1000.58;912.35;;;22.40;99.90;;;;;;5049416;28;20545;-81
2022/08/22 00:22:12;;;;;;;1007.22;918.90;;;22.40;99.90;;;;;;5042385;28;20672;-81
2022/08/22 00:24:45;;;;;;;1002.72;914.45;;;22.30;99.90;;;;;;5047097;28;20311;-80
2022/08/22 00:27:17;;;;;;;1014.00;925.50;;;22.40;99.90;;;;;;5049504;28;20719;-80
2022/08/22 00:29:50;;;;;;;994.33;906.47;;;22.30;99.90;;;;;;5040215;28;20198;-80
2022/08/22 00:32:30;;;;;;;994.85;906.75;;;22.30;99.90;;;;;;5046579;28;20203;-80
2022/08/22 00:35:07;;;;;;;996.47;908.58;;;22.30;99.90;;;;;;5045082;28;20203;-80
2022/08/22 00:37:39;;;;;;;985.17;897.35;;;22.30;99.90;;;;;;5044526;28;20222;-80
2022/08/22 00:40:19;;;;;;;1011.30;922.80;;;22.30;99.90;;;;;;5045514;28;20562;-80
2022/08/22 00:43:30;;;;;;;995.55;907.50;;;22.30;99.90;;;;;;5043459;28;20214;-80
2022/08/22 00:46:11;;;;;;;988.05;900.45;;;22.20;99.90;;;;;;5038848;28;20282;-80
2022/08/22 00:48:59;;;;;;;992.42;904.45;;;22.30;99.90;;;;;;5048708;28;20202;-81
2022/08/22 00:51:56;;;;;;;984.63;896.92;;;22.20;99.90;;;;;;5043782;28;20199;-81
2022/08/22 00:54:37;;;;;;;995.90;907.85;;;22.20;99.90;;;;;;5048909;28;20217;-81
2022/08/22 00:57:22;;;;;;;995.03;907.08;;;22.20;99.90;;;;;;5050214;28;20223;-81
2022/08/22 01:00:10;;;;;;;992.67;904.95;;;22.20;99.90;;;;;;5042124;28;20324;-81
2022/08/22 01:02:53;;;;;;;976.78;889.40;;;22.10;99.90;;;;;;5047528;28;20210;-81
2022/08/22 01:05:32;;;;;;;994.03;905.97;;;22.10;99.90;;;;;;5036699;28;20601;-81
2022/08/22 01:08:19;;;;;;;981.50;893.88;;;22.10;99.90;;;;;;5042283;28;20192;-80
2022/08/22 01:11:01;;;;;;;989.55;901.72;;;22.10;99.90;;;;;;5048209;28;20228;-81
2022/08/22 01:13:42;;;;;;;974.00;886.85;;;22.10;99.90;;;;;;5042868;28;20680;-81
2022/08/22 01:16:28;;;;;;;991.88;903.80;;;22.00;99.90;;;;;;5040113;28;20203;-80
2022/08/22 01:19:30;;;;;;;977.05;889.72;;;22.00;99.90;;;;;;5036246;28;20697;-80
2022/08/22 01:22:37;;;;;;;976.03;888.55;;;22.00;99.90;;;;;;5020649;28;20210;-81
2022/08/22 01:25:52;;;;;;;981.58;893.97;;;22.00;99.90;;;;;;5049838;28;20638;-80
2022/08/22 01:28:48;;;;;;;973.25;885.88;;;21.90;99.90;;;;;;5011737;28;20290;-81
2022/08/22 01:31:51;;;;;;;969.83;882.40;;;21.90;99.90;;;;;;5036083;28;20191;-80
2022/08/22 01:34:51;;;;;;;982.03;894.53;;;21.90;99.90;;;;;;5047110;28;20213;-81
2022/08/22 01:38:03;;;;;;;980.53;892.85;;;21.90;99.90;;;;;;5043644;28;20634;-81
2022/08/22 01:41:17;;;;;;;967.17;880.05;;;21.90;99.90;;;;;;5013933;28;20195;-81
2022/08/22 01:44:02;;;;;;;965.35;878.00;;;21.90;99.90;;;;;;5046306;28;20203;-81
2022/08/22 01:46:47;;;;;;;978.13;890.65;;;21.90;99.90;;;;;;5045624;28;20674;-80
2022/08/22 01:49:21;;;;;;;982.55;895.08;;;21.80;99.90;;;;;;5036777;28;20198;-80
2022/08/22 01:51:53;;;;;;;987.88;899.88;;;21.80;99.90;;;;;;5045292;28;20206;-80
2022/08/22 01:54:45;;;;;;;989.38;901.47;;;21.80;99.90;;;;;;5038696;28;20204;-80
2022/08/22 01:57:13;;;;;;;975.30;888.05;;;21.80;99.90;;;;;;5043119;28;20225;-80
2022/08/22 01:59:43;;;;;;;974.15;886.65;;;21.70;99.90;;;;;;5036124;28;20682;-80
2022/08/22 02:02:27;;;;;;;999.70;911.40;;;21.70;99.90;;;;;;5051458;28;20195;-81
2022/08/22 02:05:00;;;;;;;974.95;887.45;;;21.70;99.90;;;;;;5050034;28;20212;-80
2022/08/22 02:07:39;;;;;;;974.05;886.55;;;21.70;99.90;;;;;;5047283;28;20194;-80
2022/08/22 02:10:13;;;;;;;979.13;891.47;;;21.70;99.90;;;;;;5039395;28;20198;-80
2022/08/22 02:12:45;;;;;;;969.17;882.08;;;21.70;99.90;;;;;;5045201;28;20214;-80
2022/08/22 02:15:23;;;;;;;990.15;902.35;;;21.70;99.90;;;;;;5038689;28;20294;-80
2022/08/22 02:18:09;;;;;;;980.92;893.38;;;21.70;99.90;;;;;;5049217;28;20305;-80
2022/08/22 02:20:43;;;;;;;964.45;877.53;;;21.60;99.90;;;;;;5035555;28;20271;-80
2022/08/22 02:23:21;;;;;;;966.63;879.53;;;21.60;99.90;;;;;;5037970;28;20205;-80
2022/08/22 02:25:55;;;;;;;963.90;876.72;;;21.60;99.90;;;;;;5041291;28;20187;-81
2022/08/22 02:28:35;;;;;;;972.90;885.72;;;21.60;99.90;;;;;;5054357;28;20267;-80
2022/08/22 02:31:09;;;;;;;967.45;880.28;;;21.60;99.90;;;;;;5045648;28;20203;-82
2022/08/22 02:33:48;;;;;;;976.88;889.40;;;21.60;99.90;;;;;;5049324;28;20199;-81
2022/08/22 02:36:19;;;;;;;972.67;885.28;;;21.50;99.90;;;;;;5049566;28;20199;-80
2022/08/22 02:38:54;;;;;;;971.47;883.97;;;21.50;99.90;;;;;;5048311;28;20602;-80
2022/08/22 02:41:28;;;;;;;958.25;871.30;;;21.50;99.90;;;;;;5044163;28;20577;-80
2022/08/22 02:44:01;;;;;;;969.65;882.55;;;21.50;99.90;;;;;;5046261;28;20687;-80
2022/08/22 02:46:41;;;;;;;962.50;875.33;;;21.50;99.90;;;;;;5047120;28;20199;-80
2022/08/22 02:49:16;;;;;;;969.25;882.28;;;21.50;99.90;;;;;;5039911;28;20222;-80
2022/08/22 02:51:53;;;;;;;972.42;885.22;;;21.50;99.90;;;;;;5050364;28;20202;-80
2022/08/22 02:54:27;;;;;;;971.05;883.88;;;21.40;99.90;;;;;;5055749;28;20182;-81
2022/08/22 02:57:02;;;;;;;957.97;871.08;;;21.40;99.90;;;;;;5068028;28;20188;-81
2022/08/22 02:59:34;;;;;;;970.10;882.85;;;21.40;99.90;;;;;;5072797;28;20197;-80
2022/08/22 03:02:35;;;;;;;967.88;880.65;;;21.40;99.90;;;;;;5066002;28;20729;-80
2022/08/22 03:05:17;;;;;;;945.90;859.47;;;21.40;99.90;;;;;;5063318;28;20200;-80
2022/08/22 03:07:55;;;;;;;956.47;869.42;;;21.30;99.90;;;;;;5072311;28;20185;-80
2022/08/22 03:10:26;;;;;;;955.38;868.65;;;21.40;99.90;;;;;;5068477;28;20195;-81
2022/08/22 03:13:02;;;;;;;953.60;866.80;;;21.30;99.90;;;;;;5061011;28;20218;-83
2022/08/22 03:15:34;;;;;;;954.25;867.38;;;21.30;99.90;;;;;;5061479;28;20716;-80
2022/08/22 03:18:06;;;;;;;968.55;881.00;;;21.30;99.90;;;;;;5068996;28;20222;-81
2022/08/22 03:20:49;;;;;;;955.63;868.80;;;21.30;99.90;;;;;;5067173;28;20207;-81
2022/08/22 03:23:34;;;;;;;963.33;876.20;;;21.30;99.90;;;;;;5058317;28;20615;-81
2022/08/22 03:26:08;;;;;;;953.08;866.30;;;21.20;99.90;;;;;;5072200;28;20189;-80
2022/08/22 03:28:41;;;;;;;959.72;872.83;;;21.20;99.90;;;;;;5066414;28;20569;-81
2022/08/22 03:31:14;;;;;;;963.30;876.17;;;21.20;99.90;;;;;;5064212;28;20170;-80
2022/08/22 03:33:42;;;;;;;950.35;863.20;;;21.20;99.90;;;;;;5066070;28;20190;-80
2022/08/22 03:36:24;;;;;;;944.97;858.28;;;21.20;99.90;;;;;;5061199;28;20650;-81
2022/08/22 03:39:05;;;;;;;957.65;870.15;;;21.20;99.90;;;;;;5068600;28;20222;-82
2022/08/22 03:42:09;;;;;;;948.45;861.83;;;21.20;99.90;;;;;;5067927;28;20195;-82
2022/08/22 03:45:02;;;;;;;937.35;851.08;;;21.10;99.90;;;;;;5062079;28;20207;-82
2022/08/22 03:48:05;;;;;;;943.33;856.65;;;21.10;99.90;;;;;;5059572;28;20604;-82
2022/08/22 03:51:19;;;;;;;949.47;862.78;;;21.10;99.90;;;;;;5069338;28;20202;-81
2022/08/22 03:54:14;;;;;;;945.63;859.17;;;21.10;99.90;;;;;;5049405;28;20677;-82
2022/08/22 03:57:14;;;;;;;956.60;869.65;;;21.10;99.90;;;;;;5067729;28;20241;-81
2022/08/22 04:00:03;;;;;;;933.00;846.53;;;21.00;99.90;;;;;;5069977;28;20206;-81
2022/08/22 04:03:04;;;;;;;937.70;851.38;;;21.00;99.90;;;;;;5033229;28;20643;-81
2022/08/22 04:05:59;;;;;;;941.47;855.17;;;21.00;99.90;;;;;;5012662;28;20229;-81
2022/08/22 04:08:52;;;;;;;948.42;861.53;;;21.00;99.90;;;;;;5055116;28;20231;-81
2022/08/22 04:11:40;;;;;;;941.67;855.25;;;21.00;99.90;;;;;;5057371;28;20282;-82
2022/08/22 04:14:40;;;;;;;945.55;858.88;;;21.00;99.90;;;;;;5065495;28;20674;-81
2022/08/22 04:17:30;;;;;;;940.33;853.95;;;21.00;99.90;;;;;;5043057;28;20242;-81
2022/08/22 04:20:14;;;;;;;922.55;836.83;;;21.00;99.90;;;;;;5067976;28;20249;-81
2022/08/22 04:23:15;;;;;;;928.28;842.33;;;20.90;99.90;;;;;;5064263;28;20199;-81
2022/08/22 04:25:47;;;;;;;938.65;852.30;;;20.90;99.90;;;;;;5034347;28;20724;-82
2022/08/22 04:28:20;;;;;;;939.25;852.85;;;20.90;99.90;;;;;;5067966;28;20201;-81
2022/08/22 04:30:52;;;;;;;929.97;843.90;;;20.90;99.90;;;;;;5065355;28;20209;-81
2022/08/22 04:33:26;;;;;;;932.75;846.55;;;20.90;99.90;;;;;;5058813;28;20199;-83
2022/08/22 04:36:01;;;;;;;957.75;870.65;;;20.80;99.90;;;;;;5062265;28;20200;-81
2022/08/22 04:38:33;;;;;;;935.33;848.97;;;20.90;99.90;;;;;;5064201;28;20209;-82
2022/08/22 04:41:08;;;;;;;950.72;864.03;;;20.80;99.90;;;;;;5071207;28;20686;-81
2022/08/22 04:43:41;;;;;;;956.33;869.42;;;20.80;99.90;;;;;;5058177;28;20194;-81
2022/08/22 04:46:15;;;;;;;943.60;857.15;;;20.80;99.90;;;;;;5061907;28;20191;-82
2022/08/22 04:48:50;;;;;;;944.05;857.63;;;20.80;99.90;;;;;;5063026;28;20187;-80
2022/08/22 04:51:22;;;;;;;911.40;825.90;;;20.80;99.90;;;;;;5067527;28;20666;-80
2022/08/22 04:54:04;;;;;;;927.38;841.50;;;20.80;99.90;;;;;;5069924;28;20191;-81
2022/08/22 04:56:42;;;;;;;934.40;848.30;;;20.80;99.90;;;;;;5068980;28;20195;-80
2022/08/22 04:59:12;;;;;;;937.35;850.67;;;20.80;99.90;;;;;;5071902;28;20232;-81
2022/08/22 05:01:45;;;;;;;927.58;841.38;;;20.80;99.90;;;;;;5064563;28;20238;-80
2022/08/22 05:04:18;;;;;;;939.97;853.60;;;20.80;99.90;;;;;;5068858;28;20195;-80
2022/08/22 05:06:50;;;;;;;941.58;855.03;;;20.80;99.90;;;;;;5071458;28;20262;-80
2022/08/22 05:09:22;;;;;;;934.65;848.40;;;20.80;99.90;;;;;;5061922;28;20246;-81
2022/08/22 05:11:56;;;;;;;939.70;853.35;;;20.80;99.90;;;;;;5052886;28;20824;-80
2022/08/22 05:14:27;;;;;;;955.13;868.30;;;20.80;99.90;;;;;;5066935;28;20230;-81
2022/08/22 05:16:56;;;;;;;936.67;850.15;;;20.80;99.90;;;;;;5065568;28;20195;-81
2022/08/22 05:19:28;;;;;;;953.25;866.25;;;20.70;99.90;;;;;;5071886;28;20242;-80
2022/08/22 05:21:56;;;;;;;920.75;835.05;;;20.80;99.90;;;;;;5063467;28;20281;-80
2022/08/22 05:24:27;;;;;;;939.38;853.03;;;20.70;99.90;;;;;;5075052;28;20179;-80
2022/08/22 05:27:01;;;;;;;930.50;844.28;;;20.70;99.90;;;;;;5068933;28;20191;-81
2022/08/22 05:29:31;;;;;;;935.03;848.92;;;20.70;99.90;;;;;;5054792;28;20609;-81
2022/08/22 05:32:02;;;;;;;935.67;849.03;;;20.80;99.90;;;;;;5067781;28;20209;-80
2022/08/22 05:34:33;;;;;;;938.53;852.22;;;20.70;99.90;;;;;;5072676;28;20191;-79
2022/08/22 05:37:06;;;;;;;924.65;838.72;;;20.80;99.90;;;;;;5065943;28;20195;-79
2022/08/22 05:39:33;;;;;;;921.50;835.80;;;20.70;99.90;;;;;;5068596;28;20221;-79
2022/08/22 05:42:03;;;;;;;936.63;850.03;;;20.80;99.90;;;;;;5074130;28;20186;-80
2022/08/22 05:44:33;;;;;;;941.65;855.28;;;20.80;99.90;;;;;;5058480;28;20195;-81
2022/08/22 05:47:03;;;;;;;928.33;842.17;;;20.80;99.90;;;;;;5061569;28;20202;-79
2022/08/22 05:49:36;;;;;;;930.95;844.83;;;20.80;99.90;;;;;;5069076;28;20217;-80
2022/08/22 05:52:13;;;;;;;929.38;843.53;;;20.80;99.90;;;;;;5060346;28;20196;-79
2022/08/22 05:54:48;;;;;;;947.90;861.33;;;20.90;99.90;;;;;;5054567;28;20195;-80
2022/08/22 05:57:25;;;;;;;937.70;851.33;;;20.90;99.90;;;;;;5048565;28;20198;-77
2022/08/22 05:59:59;;;;;;;925.88;839.90;;;20.90;99.90;;;;;;5047780;28;20207;-80
2022/08/22 06:02:38;;;;;;;945.22;858.63;;;20.90;99.90;;;;;;5037943;28;20193;-79
2022/08/22 06:05:06;;;;;;;940.88;854.67;;;20.90;99.90;;;;;;5040052;28;20202;-81
2022/08/22 06:07:40;;;;;;;952.65;865.83;;;21.00;99.90;;;;;;5051299;28;20203;-79
2022/08/22 06:10:19;;;;;;;940.65;854.10;;;21.20;99.90;;;;;;5045824;28;20203;-80
2022/08/22 06:12:55;;;;;;;957.60;870.75;;;21.50;99.90;;;;;;5043461;28;20199;-80
2022/08/22 06:15:28;;;;;;;973.13;885.53;;;21.60;99.90;;;;;;5037908;28;20210;-82
2022/08/22 06:17:57;;;;;;;966.55;879.05;;;21.80;99.90;;;;;;5050888;28;20199;-79
2022/08/22 06:20:26;;;;;;;975.50;888.15;;;21.90;99.90;;;;;;5035955;28;20682;-80
2022/08/22 06:22:56;;;;;;;979.17;891.65;;;22.00;99.90;;;;;;5037460;28;20203;-80
2022/08/22 06:25:27;;;;;;;989.78;901.80;;;22.00;99.90;;;;;;5051072;28;20645;-80
2022/08/22 06:27:57;;;;;;;983.63;896.08;;;22.10;99.90;;;;;;5046321;28;20200;-81
2022/08/22 06:30:28;;;;;;;1003.33;914.72;;;22.20;99.90;;;;;;5040415;28;20199;-81
2022/08/22 06:33:00;;;;;;;987.80;899.97;;;22.30;99.90;;;;;;5040973;28;20203;-79
2022/08/22 06:36:29;;;;;;;996.53;908.42;;;22.40;99.90;;;;;;5045716;28;20562;-78
2022/08/22 06:38:20;;;;;;;1017.72;928.72;;;22.60;99.90;;;;;;5042388;28;20219;-78
2022/08/22 06:40:48;;;;;;;1009.38;920.78;;;22.70;99.90;;;;;;5036923;28;20658;-80
2022/08/22 06:43:17;;;;;;;1029.78;940.47;;;22.90;99.90;;;;;;5039569;28;20207;-82
2022/08/22 06:45:44;;;;;;;1028.95;939.88;;;23.10;99.90;;;;;;5037647;28;20199;-80
2022/08/22 06:48:16;;;;;;;1014.08;925.45;;;23.30;99.90;;;;;;5047057;28;20587;-79
2022/08/22 06:50:45;;;;;;;1051.22;961.42;;;23.40;99.90;;;;;;5034414;28;20216;-78
2022/08/22 06:53:16;;;;;;;1050.63;960.75;;;23.50;99.90;;;;;;5036214;28;20202;-79
2022/08/22 06:55:47;;;;;;;1051.55;961.58;;;23.60;99.90;;;;;;5036642;28;20191;-79
2022/08/22 06:58:19;;;;;;;1037.63;948.15;;;23.60;99.90;;;;;;5046452;28;20558;-77
2022/08/22 07:00:51;;;;;;;1049.90;960.28;;;23.70;99.90;;;;;;5036659;28;20294;-79
2022/08/22 07:03:24;;;;;;;1043.90;954.28;;;23.70;99.90;;;;;;5038581;28;20195;-78
2022/08/22 07:05:54;;;;;;;1049.82;960.10;;;23.80;99.90;;;;;;5046001;28;20199;-78
2022/08/22 07:08:23;;;;;;;1050.20;960.28;;;23.90;99.90;;;;;;5037988;28;20199;-75
2022/08/22 07:10:57;;;;;;;1062.13;971.83;;;24.00;99.90;;;;;;5042800;28;20195;-78
2022/08/22 07:13:27;;;;;;;1057.97;967.90;;;24.20;99.90;;;;;;5035502;28;20196;-77
2022/08/22 07:15:57;;;;;;;1069.20;978.70;;;24.30;99.90;;;;;;5042987;28;20454;-79
2022/08/22 07:18:26;;;;;;;1071.27;980.70;;;24.40;99.90;;;;;;5044375;28;20816;-78
2022/08/22 07:20:55;;;;;;;1074.18;983.92;;;24.50;99.90;;;;;;5042494;28;20462;-80
2022/08/22 07:23:32;;;;;;;1074.78;984.25;;;24.50;99.90;;;;;;5041462;28;20570;-78
2022/08/22 07:26:13;;;;;;;1078.70;987.88;;;24.50;99.90;;;;;;5042433;28;20202;-80
2022/08/22 07:28:46;;;;;;;1075.82;985.00;;;24.60;99.90;;;;;;5040607;28;20191;-79
2022/08/22 07:31:23;;;;;;;1075.17;984.40;;;24.60;99.90;;;;;;5038660;28;20195;-80
2022/08/22 07:33:52;;;;;;;1084.43;993.53;;;24.70;99.90;;;;;;5038805;28;20804;-78
2022/08/22 07:36:24;;;;;;;1090.80;997.63;;;24.80;99.90;;;;;;5044932;28;20531;-78
2022/08/22 07:39:05;;;;;;;1092.93;999.07;;;25.00;99.90;;;;;;5045779;28;20477;-79
2022/08/22 07:41:42;;;;;;;1092.33;997.93;;;25.10;99.90;;;;;;5047761;28;20806;-78
2022/08/22 07:44:16;;;;;;;1096.53;999.40;;;25.10;99.90;;;;;;5044515;28;20458;-80
2022/08/22 07:46:52;;;;;;;1106.83;999.90;;;25.30;99.90;;;;;;5045806;28;20461;-79
2022/08/22 07:49:23;;;;;;;1112.03;999.90;;;25.40;99.80;;;;;;5050865;28;20468;-79
2022/08/22 07:51:55;;;;;;;1114.67;999.90;;;25.50;99.40;;;;;;5040321;28;20457;-77
2022/08/22 07:54:25;;;;;;;1100.80;999.90;;;25.50;99.20;;;;;;5039586;28;20948;-79
2022/08/22 07:56:57;;;;;;;1104.30;999.90;;;25.40;99.20;;;;;;5051112;28;20454;-77
2022/08/22 07:59:28;;;;;;;1102.97;999.90;;;25.30;99.50;;;;;;5042881;28;20477;-79
2022/08/22 08:01:58;;;;;;;1113.97;999.90;;;25.10;99.80;;;;;;5040285;28;20492;-78
2022/08/22 08:04:30;;;;;;;1087.87;996.30;;;25.00;99.90;;;;;;5043941;28;20472;-80
2022/08/22 08:06:59;;;;;;;1085.90;995.10;;;24.80;99.90;;;;;;5039131;28;20544;-79
2022/08/22 08:09:29;;;;;;;1082.32;991.28;;;24.60;99.90;;;;;;5047138;28;20450;-79
2022/08/22 08:11:58;;;;;;;1069.03;978.72;;;24.50;99.90;;;;;;5046491;28;20708;-80
2022/08/22 08:14:27;;;;;;;1066.75;976.40;;;24.30;99.90;;;;;;5042769;28;20203;-77
2022/08/22 08:17:01;;;;;;;1068.38;978.25;;;24.20;99.90;;;;;;5044230;28;20191;-78
2022/08/22 08:19:29;;;;;;;1057.20;967.30;;;24.10;99.90;;;;;;5044619;28;20226;-79
2022/08/22 08:21:57;;;;;;;1072.88;982.17;;;24.00;99.90;;;;;;5046937;28;20208;-80
2022/08/22 08:24:28;;;;;;;1057.82;967.97;;;24.00;99.90;;;;;;5049941;28;20195;-79
2022/08/22 08:29:53;;;;;;;1058.38;968.47;;;23.80;99.90;;;;;;5049217;28;20205;-78
2022/08/22 08:32:21;;;;;;;1043.95;954.72;;;23.80;99.90;;;;;;5041114;28;20682;-79
2022/08/22 08:34:48;;;;;;;1054.72;964.88;;;23.80;99.90;;;;;;5049271;28;20681;-81
2022/08/22 08:37:21;;;;;;;1052.15;962.70;;;23.70;99.90;;;;;;5050777;28;20261;-79
2022/08/22 08:39:50;;;;;;;1055.55;965.92;;;23.80;99.90;;;;;;5051240;28;20214;-81
2022/08/22 08:46:06;;;;;;;1052.03;962.45;;;24.20;99.90;;;;;;5041500;28;20461;-80
2022/08/22 08:48:58;;;;;;;1073.40;982.83;;;24.50;99.90;;;;;;5040461;28;20291;-78
2022/08/22 08:51:49;;;;;;;1082.73;992.03;;;24.80;99.90;;;;;;5046797;28;20471;-78
2022/08/22 08:54:32;;;;;;;1089.97;997.10;;;25.00;99.90;;;;;;5045396;28;20467;-78
2022/08/22 08:57:09;;;;;;;1089.20;996.57;;;25.10;99.90;;;;;;5039550;28;20461;-77
2022/08/22 08:59:49;;;;;;;1084.77;993.57;;;25.20;99.90;;;;;;5047329;28;20485;-80
2022/08/22 09:02:31;;;;;;;1101.77;999.90;;;25.30;99.70;;;;;;5031229;28;20496;-76
2022/08/22 09:05:33;;;;;;;1101.23;999.90;;;25.30;99.80;;;;;;5048771;28;20781;-77
2022/08/22 09:08:23;;;;;;;1105.73;999.90;;;25.30;99.60;;;;;;5043555;28;20457;-77
2022/08/22 09:11:24;;;;;;;1115.57;999.90;;;25.40;99.30;;;;;;5046552;28;20508;-77
2022/08/22 09:14:02;;;;;;;1104.13;999.90;;;25.40;98.80;;;;;;5040132;28;20515;-77
2022/08/22 09:16:51;;;;;;;1108.30;999.90;;;25.40;99.00;;;;;;5049955;28;20448;-79
2022/08/22 09:19:47;;;;;;;1103.10;999.90;;;25.50;98.80;;;;;;5039632;28;20525;-77
2022/08/22 09:22:46;;;;;;;1105.20;999.90;;;25.50;98.20;;;;;;5034637;28;20453;-77
2022/08/22 09:25:23;;;;;;;1099.03;999.90;;;25.50;98.20;;;;;;5048990;28;20460;-76
2022/08/22 09:27:58;;;;;;;1099.70;999.90;;;25.50;98.10;;;;;;5045858;28;20448;-74
2022/08/22 09:30:33;;;;;;;1116.37;999.90;;;25.50;98.00;;;;;;5050749;28;20445;-76
2022/08/22 09:33:05;;;;;;;1106.40;999.90;;;25.50;97.50;;;;;;5045011;28;20457;-77
2022/08/22 09:35:43;;;;;;;1108.33;999.90;;;25.50;97.50;;;;;;5047007;28;20461;-77
2022/08/22 09:38:25;;;;;;;1113.53;999.90;;;25.50;98.20;;;;;;5038894;28;20460;-77
2022/08/22 09:40:58;;;;;;;1096.80;999.43;;;25.40;97.70;;;;;;5048041;28;20492;-77
2022/08/22 09:43:34;;;;;;;1097.00;999.50;;;25.40;98.00;;;;;;5052804;28;20467;-78
2022/08/22 09:46:09;;;;;;;1106.47;999.90;;;25.40;98.40;;;;;;5045706;28;20460;-77
2022/08/22 09:48:48;;;;;;;1103.80;999.90;;;25.40;98.30;;;;;;5047763;28;20463;-77
2022/08/22 09:51:27;;;;;;;1099.57;999.90;;;25.40;98.00;;;;;;5048606;28;20766;-77
2022/08/22 09:54:20;;;;;;;1117.50;999.90;;;25.50;97.50;;;;;;5043646;28;20960;-77
2022/08/22 09:56:57;;;;;;;1110.37;999.90;;;25.50;97.10;;;;;;5047350;28;20484;-77
2022/08/22 09:59:33;;;;;;;1115.93;999.90;;;25.50;97.30;;;;;;5046567;28;20477;-77
2022/08/22 10:02:12;;;;;;;1114.60;999.90;;;25.50;97.20;;;;;;5042956;28;20437;-78
2022/08/22 10:04:45;;;;;;;1099.77;999.90;;;25.50;97.20;;;;;;5043994;28;20461;-77
2022/08/22 10:07:30;;;;;;;1101.10;999.90;;;25.50;97.50;;;;;;5041686;28;20450;-80
2022/08/22 10:10:05;;;;;;;1091.40;997.67;;;25.50;96.70;;;;;;5047880;28;20457;-77
2022/08/22 10:12:43;;;;;;;1106.80;999.90;;;25.50;96.10;;;;;;5045680;28;20547;-79
2022/08/22 10:15:18;;;;;;;1115.17;999.90;;;25.50;96.90;;;;;;5046824;28;20536;-78
2022/08/22 10:18:00;;;;;;;1105.13;999.90;;;25.50;96.60;;;;;;5049877;28;20444;-77
2022/08/22 10:20:31;;;;;;;1117.97;999.90;;;25.50;95.20;;;;;;5041161;28;21012;-78
2022/08/22 10:23:13;;;;;;;1104.33;999.90;;;25.50;96.60;;;;;;5045733;28;20944;-76
2022/08/22 10:25:44;;;;;;;1093.70;998.43;;;25.50;96.50;;;;;;5037189;28;20937;-78
2022/08/22 10:28:31;;;;;;;1094.80;998.60;;;25.40;95.10;;;;;;5041275;28;20461;-77
2022/08/22 10:31:22;;;;;;;1103.60;999.90;;;25.40;95.60;;;;;;5049515;28;20822;-79
2022/08/22 10:33:58;;;;;;;1095.37;998.97;;;25.40;96.30;;;;;;5040622;28;20461;-78
2022/08/22 10:36:34;;;;;;;1100.97;999.90;;;25.40;94.70;;;;;;5037299;28;20453;-76
2022/08/22 10:39:08;;;;;;;1094.60;998.70;;;25.40;95.40;;;;;;5047287;28;20541;-77
2022/08/22 10:41:42;;;;;;;1098.83;999.90;;;25.40;94.70;;;;;;5043810;28;20840;-77
2022/08/22 10:44:16;;;;;;;1098.03;999.80;;;25.40;95.00;;;;;;5041697;28;20465;-77
2022/08/22 10:46:51;;;;;;;1099.03;999.90;;;25.40;95.20;;;;;;5045899;28;20467;-77
2022/08/22 10:49:24;;;;;;;1104.47;999.90;;;25.40;95.70;;;;;;5053439;28;20467;-79
2022/08/22 10:51:57;;;;;;;1099.30;999.90;;;25.40;95.20;;;;;;5051048;28;20445;-77
2022/08/22 10:54:38;;;;;;;1103.43;999.90;;;25.40;95.70;;;;;;5049117;28;20956;-78
2022/08/22 10:57:17;;;;;;;1108.70;999.90;;;25.30;94.50;;;;;;5046575;28;20934;-78
2022/08/22 10:59:49;;;;;;;1089.47;996.50;;;25.30;95.30;;;;;;5046828;28;20512;-77
2022/08/22 11:02:36;;;;;;;1106.00;999.90;;;25.40;95.20;;;;;;5041921;28;20530;-77
2022/08/22 11:05:30;;;;;;;1090.93;997.53;;;25.30;95.10;;;;;;5043522;28;20837;-79
2022/08/22 11:08:18;;;;;;;1079.57;989.40;;;25.30;94.90;;;;;;5037374;28;20469;-79
2022/08/22 11:11:22;;;;;;;1100.47;999.90;;;25.30;95.40;;;;;;5044175;28;20449;-79
2022/08/22 11:14:06;;;;;;;1078.27;988.00;;;25.30;95.40;;;;;;5009199;28;20463;-78
2022/08/22 11:16:45;;;;;;;1084.50;993.47;;;25.30;95.10;;;;;;5051799;28;20446;-78
2022/08/22 11:19:23;;;;;;;1094.03;999.43;;;25.30;94.80;;;;;;5038461;28;20481;-78
2022/08/22 11:22:00;;;;;;;1112.73;999.90;;;25.40;95.20;;;;;;5046117;28;20465;-79
2022/08/22 11:24:56;;;;;;;1099.10;999.90;;;25.30;95.40;;;;;;5048429;28;20540;-77
2022/08/22 11:27:36;;;;;;;1096.07;999.27;;;25.30;95.30;;;;;;5053980;28;20939;-79
2022/08/22 11:30:09;;;;;;;1109.80;999.90;;;25.30;95.10;;;;;;5036123;28;20449;-79
2022/08/22 11:32:39;;;;;;;1098.83;999.90;;;25.30;95.60;;;;;;5035970;28;21294;-78
2022/08/22 11:35:16;;;;;;;1087.30;995.27;;;25.30;95.10;;;;;;5043634;28;20465;-79
2022/08/22 11:37:53;;;;;;;1099.40;999.90;;;25.30;95.00;;;;;;5052199;28;20443;-79
2022/08/22 11:40:42;;;;;;;1090.50;997.40;;;25.30;94.80;;;;;;5042318;28;20551;-79
2022/08/22 11:43:39;;;;;;;1088.33;996.03;;;25.30;95.00;;;;;;5040609;28;20461;-80
2022/08/22 11:46:19;;;;;;;1083.83;993.20;;;25.40;95.00;;;;;;5049625;28;20468;-77
2022/08/22 11:48:59;;;;;;;1088.83;996.53;;;25.30;95.10;;;;;;5038508;28;20468;-76
2022/08/22 11:51:48;;;;;;;1085.63;994.27;;;25.30;95.20;;;;;;5037424;28;20449;-78
2022/08/22 11:54:23;;;;;;;1086.77;994.87;;;25.30;95.00;;;;;;5047630;28;20543;-76
2022/08/22 11:57:00;;;;;;;1094.90;999.00;;;25.30;95.00;;;;;;5051386;28;20951;-79
2022/08/22 11:59:40;;;;;;;1088.73;996.40;;;25.30;95.20;;;;;;5043813;28;20802;-78
2022/08/22 12:02:18;;;;;;;1088.07;995.87;;;25.30;95.00;;;;;;5038070;28;20446;-77
2022/08/22 12:04:51;;;;;;;1097.13;998.97;;;25.30;95.00;;;;;;5041460;28;20808;-79
2022/08/22 12:07:24;;;;;;;1091.90;997.97;;;25.30;94.90;;;;;;5052132;28;20453;-79
2022/08/22 12:09:58;;;;;;;1082.37;991.83;;;25.30;94.70;;;;;;5047598;28;20434;-79
2022/08/22 12:12:35;;;;;;;1096.47;999.40;;;25.30;94.20;;;;;;5052288;28;20438;-79
2022/08/22 12:15:11;;;;;;;1089.53;997.07;;;25.30;94.40;;;;;;5052008;28;20461;-78
2022/08/22 12:18:21;;;;;;;1089.70;997.23;;;25.30;94.80;;;;;;5052699;28;20778;-80
2022/08/22 12:21:13;;;;;;;1076.17;986.07;;;25.30;94.90;;;;;;5043385;28;20496;-77
2022/08/22 12:24:09;;;;;;;1093.53;998.60;;;25.30;94.80;;;;;;5049620;28;20442;-77
2022/08/22 12:26:47;;;;;;;1088.63;996.53;;;25.30;94.80;;;;;;5044694;28;20438;-79
2022/08/22 12:29:32;;;;;;;1093.47;998.67;;;25.30;95.10;;;;;;5033313;28;20428;-76
2022/08/22 12:32:47;;;;;;;1088.60;996.33;;;25.30;95.40;;;;;;5033832;28;20435;-77
2022/08/22 12:35:29;;;;;;;1093.93;998.80;;;25.30;95.00;;;;;;5043348;28;20985;-77
2022/08/22 12:38:08;;;;;;;1072.37;982.33;;;25.30;95.00;;;;;;5048088;28;20443;-77
2022/08/22 12:40:47;;;;;;;1089.57;996.97;;;25.30;94.50;;;;;;5046989;28;20473;-78
2022/08/22 12:43:35;;;;;;;1095.20;999.20;;;25.30;94.50;;;;;;5037095;28;20528;-76
2022/08/22 12:46:14;;;;;;;1081.97;991.60;;;25.30;94.70;;;;;;5038304;28;20814;-76
2022/08/22 12:49:19;;;;;;;1097.30;999.80;;;25.30;94.00;;;;;;5043339;28;21047;-77
2022/08/22 12:52:01;;;;;;;1093.00;997.73;;;25.30;94.50;;;;;;5030865;28;20456;-77
2022/08/22 12:54:46;;;;;;;1084.50;993.73;;;25.30;94.60;;;;;;5045614;28;20789;-77
2022/08/22 12:57:22;;;;;;;1086.77;995.27;;;25.30;94.70;;;;;;5044492;28;20461;-78
2022/08/22 12:59:52;;;;;;;1081.07;990.73;;;25.30;94.60;;;;;;5038585;28;20485;-77
2022/08/22 13:02:24;;;;;;;1085.93;994.70;;;25.30;94.70;;;;;;5044302;28;20488;-79
2022/08/22 13:04:54;;;;;;;1107.40;999.90;;;25.30;94.50;;;;;;5041872;28;20923;-78
2022/08/22 13:07:29;;;;;;;1092.97;998.40;;;25.40;94.40;;;;;;5042296;28;20450;-78